createdAt,value
2024-05-09T00:02:33.267Z,102145.59
2024-05-09T00:06:34.888Z,102142.16
2024-05-09T00:10:40.654Z,102141.69
2024-05-09T00:14:42.967Z,102134.44
2024-05-09T00:18:44.747Z,102136.53
2024-05-09T00:22:49.107Z,102132.66
2024-05-09T00:26:50.759Z,102136.78
2024-05-09T00:30:52.751Z,102132.63
2024-05-09T00:34:54.389Z,102140.25
2024-05-09T00:38:56.027Z,102141.34
2024-05-09T00:42:57.703Z,102140.94
2024-05-09T00:46:59.756Z,102135.81
2024-05-09T00:51:02.474Z,102131.09
2024-05-09T00:55:04.604Z,102125.53
2024-05-09T00:59:06.682Z,102133.91
2024-05-09T01:03:11.658Z,102139.69
2024-05-09T01:07:15.094Z,102134.13
2024-05-09T01:11:18.326Z,102134.63
2024-05-09T01:15:20.150Z,102137.00
2024-05-09T01:19:29.658Z,102141.94
2024-05-09T01:23:31.500Z,102136.31
2024-05-09T01:27:33.228Z,102149.50
2024-05-09T01:31:34.928Z,102150.84
2024-05-09T01:35:37.039Z,102152.88
2024-05-09T01:39:38.870Z,102146.31
2024-05-09T01:43:40.548Z,102137.44
2024-05-09T01:47:42.454Z,102131.66
2024-05-09T01:51:44.297Z,102133.63
2024-05-09T01:55:46.258Z,102133.66
2024-05-09T01:59:48.193Z,102129.66
2024-05-09T02:03:50.142Z,102134.44
2024-05-09T02:07:52.004Z,102132.78
2024-05-09T02:11:54.030Z,102141.22
2024-05-09T02:15:56.127Z,102140.72
2024-05-09T02:19:57.836Z,102147.75
2024-05-09T02:24:00.044Z,102140.63
2024-05-09T02:28:01.792Z,102135.47
2024-05-09T02:32:03.712Z,102133.75
2024-05-09T02:36:05.918Z,102141.97
2024-05-09T02:40:11.709Z,102132.31
2024-05-09T02:44:16.211Z,102131.34
2024-05-09T02:48:18.382Z,102129.84
2024-05-09T02:52:20.187Z,102135.94
2024-05-09T02:56:21.955Z,102121.91
2024-05-09T03:00:29.817Z,102128.44
2024-05-09T03:04:39.182Z,102123.28
2024-05-09T03:08:44.775Z,102131.75
2024-05-09T03:12:46.505Z,102124.53
2024-05-09T03:16:48.549Z,102133.63
2024-05-09T03:20:50.335Z,102144.47
2024-05-09T03:24:52.090Z,102135.88
2024-05-09T03:28:53.857Z,102129.13
2024-05-09T03:32:55.663Z,102133.03
2024-05-09T03:36:57.391Z,102136.88
2024-05-09T03:40:59.019Z,102135.81
2024-05-09T03:45:00.710Z,102141.94
2024-05-09T03:49:02.420Z,102133.94
2024-05-09T03:53:04.810Z,102138.16
2024-05-09T03:57:09.087Z,102141.03
2024-05-09T04:01:10.983Z,102132.09
2024-05-09T04:05:12.959Z,102139.94
2024-05-09T04:09:14.576Z,102135.94
2024-05-09T04:13:16.157Z,102139.13
2024-05-09T04:17:17.750Z,102145.66
2024-05-09T04:21:19.369Z,102143.84
2024-05-09T04:25:21.016Z,102151.38
2024-05-09T04:29:22.690Z,102141.53
2024-05-09T04:33:24.520Z,102144.78
2024-05-09T04:37:26.428Z,102156.19
2024-05-09T04:41:28.084Z,102154.50
2024-05-09T04:45:30.042Z,102144.22
2024-05-09T04:49:32.085Z,102145.25
2024-05-09T04:53:33.799Z,102150.03
2024-05-09T04:57:35.511Z,102152.19
2024-05-09T05:01:37.174Z,102157.50
2024-05-09T05:05:42.014Z,102157.97
2024-05-09T05:09:43.690Z,102156.56
2024-05-09T05:13:45.371Z,102156.72
2024-05-09T05:17:47.249Z,102159.28
2024-05-09T05:21:49.063Z,102147.47
2024-05-09T05:25:55.299Z,102156.50
2024-05-09T05:29:57.273Z,102159.13
2024-05-09T05:33:59.042Z,102162.94
2024-05-09T05:38:01.130Z,102167.00
2024-05-09T05:42:03.160Z,102166.69
2024-05-09T05:46:04.928Z,102166.25
2024-05-09T05:50:17.603Z,102166.88
2024-05-09T05:54:25.768Z,102160.84
2024-05-09T05:58:27.371Z,102158.63
2024-05-09T06:02:29.070Z,102152.09
2024-05-09T06:06:30.682Z,102158.34
2024-05-09T06:10:38.127Z,102167.84
2024-05-09T06:14:44.547Z,102162.75
2024-05-09T06:18:47.020Z,102160.34
2024-05-09T06:22:48.784Z,102155.13
2024-05-09T06:26:50.463Z,102156.22
2024-05-09T06:30:52.107Z,102152.34
2024-05-09T06:34:53.760Z,102157.94
2024-05-09T06:38:55.425Z,102154.63
2024-05-09T06:42:57.781Z,102154.06
2024-05-09T06:47:00.135Z,102151.38
2024-05-09T06:51:02.101Z,102138.69
2024-05-09T06:55:04.147Z,102147.56
2024-05-09T06:59:06.035Z,102139.13
2024-05-09T07:03:13.846Z,102132.88
2024-05-09T07:07:17.868Z,102139.94
2024-05-09T07:11:19.769Z,102138.81
2024-05-09T07:15:21.468Z,102125.53
2024-05-09T07:19:23.261Z,102137.69
2024-05-09T07:23:24.959Z,102130.44
2024-05-09T07:27:27.955Z,102131.72
2024-05-09T07:31:30.718Z,102128.06
2024-05-09T07:35:32.721Z,102133.03
2024-05-09T07:39:34.649Z,102137.13
2024-05-09T07:43:36.208Z,102128.78
2024-05-09T07:48:58.144Z,102132.84
2024-05-09T07:53:25.383Z,102125.13
2024-05-09T07:56:24.073Z,102122.56
2024-05-09T08:00:31.097Z,102121.00
2024-05-09T08:04:33.989Z,102130.84
2024-05-09T08:08:35.641Z,102124.25
2024-05-09T08:12:37.523Z,102129.16
2024-05-09T08:16:39.165Z,102125.22
2024-05-09T08:20:42.004Z,102120.09
2024-05-09T08:24:46.849Z,102118.28
2024-05-09T08:28:48.984Z,102117.72
2024-05-09T08:32:50.967Z,102119.84
2024-05-09T08:36:52.756Z,102118.53
2024-05-09T08:40:54.433Z,102121.28
2024-05-09T08:44:56.583Z,102114.38
2024-05-09T08:48:59.689Z,102119.94
2024-05-09T08:53:01.687Z,102114.59
2024-05-09T08:57:04.760Z,102112.16
2024-05-09T09:01:07.542Z,102101.56
2024-05-09T09:05:11.410Z,102109.75
2024-05-09T09:09:14.179Z,102110.84
2024-05-09T09:13:16.122Z,102117.44
2024-05-09T09:17:17.792Z,102111.69
2024-05-09T09:21:19.450Z,102098.88
2024-05-09T09:25:24.529Z,102099.50
2024-05-09T09:29:26.728Z,102093.41
2024-05-09T09:33:31.339Z,102096.63
2024-05-09T09:37:34.973Z,102097.06
2024-05-09T09:41:38.077Z,102096.03
2024-05-09T09:45:41.314Z,102098.25
2024-05-09T09:49:43.590Z,102099.22
2024-05-09T09:53:47.361Z,102095.41
2024-05-09T09:57:49.561Z,102093.31
2024-05-09T10:01:51.480Z,102081.94
2024-05-09T10:05:54.354Z,102072.63
2024-05-09T10:09:57.542Z,102082.66
2024-05-09T10:13:59.176Z,102080.56
2024-05-09T10:18:07.332Z,102087.47
2024-05-09T10:22:09.531Z,102086.41
2024-05-09T10:26:11.304Z,102084.94
2024-05-09T10:30:29.741Z,102078.25
2024-05-09T10:34:37.472Z,102075.31
2024-05-09T10:38:41.252Z,102071.56
2024-05-09T10:42:43.515Z,102061.97
2024-05-09T10:46:46.775Z,102059.84
2024-05-09T10:50:48.421Z,102058.25
2024-05-09T10:54:54.256Z,102051.91
2024-05-09T10:58:55.967Z,102045.66
2024-05-09T11:02:57.703Z,102050.66
2024-05-09T11:07:05.542Z,102051.19
2024-05-09T11:11:08.970Z,102038.00
2024-05-09T11:15:11.390Z,102025.50
2024-05-09T11:19:14.306Z,102018.53
2024-05-09T11:23:16.760Z,102025.06
2024-05-09T11:27:21.499Z,102020.09
2024-05-09T11:31:23.543Z,102018.44
2024-05-09T11:35:28.660Z,102015.56
2024-05-09T11:39:30.659Z,102013.38
2024-05-09T11:43:33.299Z,102011.38
2024-05-09T11:47:35.554Z,102007.97
2024-05-09T11:51:37.257Z,101999.72
2024-05-09T11:55:38.922Z,101997.25
2024-05-09T11:59:40.982Z,101996.72
2024-05-09T12:03:42.719Z,101995.38
2024-05-09T12:07:44.559Z,101985.03
2024-05-09T12:11:46.255Z,101983.50
2024-05-09T12:15:48.007Z,101982.13
2024-05-09T12:19:49.666Z,101980.56
2024-05-09T12:23:51.468Z,101985.06
2024-05-09T12:27:53.224Z,101982.06
2024-05-09T12:31:54.976Z,101970.94
2024-05-09T12:35:56.874Z,101972.69
2024-05-09T12:40:01.161Z,101969.66
2024-05-09T12:44:02.794Z,101966.28
2024-05-09T12:48:07.443Z,101954.66
2024-05-09T12:52:09.909Z,101947.53
2024-05-09T12:56:12.032Z,101940.31
2024-05-09T13:00:23.411Z,101936.97
2024-05-09T13:04:29.940Z,101929.44
2024-05-09T13:08:35.359Z,101911.09
2024-05-09T13:12:38.445Z,101912.66
2024-05-09T13:16:42.542Z,101916.00
2024-05-09T13:20:45.504Z,101913.91
2024-05-09T13:24:47.253Z,101918.41
2024-05-09T13:28:48.962Z,101902.63
2024-05-09T13:32:50.739Z,101889.47
2024-05-09T13:36:52.819Z,101885.09
2024-05-09T13:40:54.533Z,101881.56
2024-05-09T13:44:56.410Z,101888.13
2024-05-09T13:48:58.361Z,101878.06
2024-05-09T13:53:00.263Z,101880.06
2024-05-09T13:57:02.202Z,101873.47
2024-05-09T14:01:04.129Z,101867.66
2024-05-09T14:05:06.300Z,101869.75
2024-05-09T14:09:09.754Z,101874.22
2024-05-09T14:13:11.681Z,101871.44
2024-05-09T14:17:13.533Z,101868.66
2024-05-09T14:21:15.261Z,101860.34
2024-05-09T14:25:17.203Z,101849.97
2024-05-09T14:29:19.016Z,101857.41
2024-05-09T14:33:26.322Z,101842.00
2024-05-09T14:37:28.339Z,101837.88
2024-05-09T14:41:29.998Z,101837.69
2024-05-09T14:45:32.536Z,101830.81
2024-05-09T14:49:35.287Z,101827.25
2024-05-09T14:53:36.978Z,101823.81
2024-05-09T14:57:38.817Z,101818.22
2024-05-09T15:01:40.676Z,101817.06
2024-05-09T15:05:42.396Z,101813.72
2024-05-09T15:09:44.176Z,101814.06
2024-05-09T15:13:45.869Z,101803.25
2024-05-09T15:17:47.861Z,101814.03
2024-05-09T15:21:50.128Z,101802.63
2024-05-09T15:25:51.964Z,101799.81
2024-05-09T15:29:53.655Z,101801.09
2024-05-09T15:33:55.481Z,101797.28
2024-05-09T15:37:57.232Z,101792.41
2024-05-09T15:41:58.966Z,101789.69
2024-05-09T15:46:00.831Z,101775.84
2024-05-09T15:50:02.810Z,101787.19
2024-05-09T15:54:04.632Z,101776.22
2024-05-09T15:58:08.223Z,101782.50
2024-05-09T16:02:11.568Z,101784.69
2024-05-09T16:06:13.786Z,101775.78
2024-05-09T16:10:22.711Z,101771.31
2024-05-09T16:14:27.448Z,101775.47
2024-05-09T16:18:29.127Z,101771.97
2024-05-09T16:22:31.217Z,101776.91
2024-05-09T16:26:33.094Z,101784.50
2024-05-09T16:30:37.343Z,101769.66
2024-05-09T16:34:39.078Z,101764.94
2024-05-09T16:38:42.966Z,101766.75
2024-05-09T16:42:45.934Z,101770.03
2024-05-09T16:46:47.714Z,101778.03
2024-05-09T16:50:49.391Z,101775.94
2024-05-09T16:54:52.254Z,101769.19
2024-05-09T16:58:53.917Z,101772.16
2024-05-09T17:02:55.577Z,101773.06
2024-05-09T17:06:57.362Z,101771.41
2024-05-09T17:10:59.202Z,101771.03
2024-05-09T17:15:01.072Z,101776.75
2024-05-09T17:19:02.888Z,101765.19
2024-05-09T17:23:06.232Z,101758.28
2024-05-09T17:27:08.722Z,101766.78
2024-05-09T17:31:11.029Z,101771.50
2024-05-09T17:35:12.899Z,101766.13
2024-05-09T17:39:14.765Z,101769.91
2024-05-09T17:43:16.484Z,101764.44
2024-05-09T17:47:18.412Z,101766.13
2024-05-09T17:51:20.290Z,101761.13
2024-05-09T17:55:22.142Z,101769.53
2024-05-09T17:59:23.903Z,101772.88
2024-05-09T18:03:25.946Z,101762.44
2024-05-09T18:07:27.782Z,101761.59
2024-05-09T18:11:29.568Z,101767.19
2024-05-09T18:15:31.226Z,101775.59
2024-05-09T18:19:33.114Z,101782.69
2024-05-09T18:23:34.937Z,101773.50
2024-05-09T18:27:36.648Z,101775.81
2024-05-09T18:31:38.374Z,101778.72
2024-05-09T18:35:43.203Z,101780.84
2024-05-09T18:39:44.981Z,101787.09
2024-05-09T18:43:50.367Z,101780.59
2024-05-09T18:47:52.931Z,101778.91
2024-05-09T18:51:54.823Z,101798.72
2024-05-09T18:55:56.667Z,101804.25
2024-05-09T18:59:58.306Z,101803.22
2024-05-09T19:04:00.272Z,101798.19
2024-05-09T19:08:02.220Z,101808.66
2024-05-09T19:12:06.482Z,101807.91
2024-05-09T19:16:08.411Z,101809.84
2024-05-09T19:20:20.519Z,101808.44
2024-05-09T19:24:29.854Z,101811.84
2024-05-09T19:28:31.956Z,101812.38
2024-05-09T19:32:33.876Z,101818.91
2024-05-09T19:36:35.737Z,101812.78
2024-05-09T19:40:37.497Z,101818.38
2024-05-09T19:44:40.308Z,101816.19
2024-05-09T19:48:42.352Z,101814.19
2024-05-09T19:52:44.223Z,101816.81
2024-05-09T19:56:45.893Z,101822.25
2024-05-09T20:00:47.929Z,101820.97
2024-05-09T20:04:50.659Z,101830.34
2024-05-09T20:08:57.083Z,101825.88
2024-05-09T20:12:58.954Z,101828.81
2024-05-09T20:17:01.351Z,101820.13
2024-05-09T20:21:03.362Z,101823.84
2024-05-09T20:25:05.698Z,101826.94
2024-05-09T20:29:07.383Z,101826.75
2024-05-09T20:33:10.038Z,101828.22
2024-05-09T20:37:12.802Z,101824.72
2024-05-09T20:41:14.549Z,101828.31
2024-05-09T20:45:16.222Z,101831.22
2024-05-09T20:49:18.329Z,101835.03
2024-05-09T20:53:20.115Z,101828.16
2024-05-09T20:57:21.809Z,101824.78
2024-05-09T21:01:23.927Z,101825.06
2024-05-09T21:05:25.799Z,101834.94
2024-05-09T21:09:28.012Z,101831.13
2024-05-09T21:13:29.726Z,101824.22
2024-05-09T21:17:31.521Z,101831.22
2024-05-09T21:21:39.547Z,101829.66
2024-05-09T21:25:41.194Z,101836.06
2024-05-09T21:29:43.003Z,101835.16
2024-05-09T21:33:44.833Z,101832.59
2024-05-09T21:37:47.087Z,101834.13
2024-05-09T21:41:48.761Z,101826.78
2024-05-09T21:45:50.448Z,101836.09
2024-05-09T21:49:52.180Z,101833.78
2024-05-09T21:53:53.821Z,101826.34
2024-05-09T21:57:56.631Z,101828.41
2024-05-09T22:01:58.683Z,101829.16
2024-05-09T22:06:00.658Z,101827.22
2024-05-09T22:10:05.092Z,101817.81
2024-05-09T22:14:09.806Z,101828.81
2024-05-09T22:18:12.075Z,101821.94
2024-05-09T22:22:13.866Z,101830.78
2024-05-09T22:26:15.501Z,101827.97
2024-05-09T22:30:23.829Z,101824.19
2024-05-09T22:34:29.527Z,101829.47
2024-05-09T22:38:33.800Z,101829.16
2024-05-09T22:42:35.436Z,101825.47
2024-05-09T22:46:37.243Z,101822.47
2024-05-09T22:50:40.183Z,101830.22
2024-05-09T22:54:42.371Z,101834.94
2024-05-09T22:58:45.411Z,101828.72
2024-05-09T23:02:47.134Z,101832.41
2024-05-09T23:06:51.593Z,101826.34
2024-05-09T23:10:53.624Z,101825.66
2024-05-09T23:14:55.566Z,101834.22
2024-05-09T23:18:57.371Z,101824.16
2024-05-09T23:22:59.124Z,101823.66
2024-05-09T23:27:01.192Z,101822.63
2024-05-09T23:31:02.916Z,101820.25
2024-05-09T23:35:05.113Z,101820.16
2024-05-09T23:39:06.775Z,101821.06
2024-05-09T23:43:10.700Z,101818.03
2024-05-09T23:47:12.865Z,101801.06
2024-05-09T23:51:15.039Z,101803.94
2024-05-09T23:55:16.824Z,101802.41
2024-05-09T23:59:18.688Z,101800.22
